• Join FlightAware (Why Join?)
  • Login
  • US Flag 
12:06PM EDT


 

Airport Tracker/Info


-or-


 

Live Flight TrackerFlight Track Log ✈ DAL5547 ✈ 05-Sep-2013 ✈ KHSV - KATL

Flight Track Log - Related Links

Times and Time Zones

All times are in EDT time to prevent confusion due to time zone crossing. See the DAL5547 flight status page for this flight to view local times or setup timezone preferences in your user account.

Time Position Orientation Groundspeed Altitude Reporting Facility
EDT Latitude Longitude Course Direction KTS MPH feet Rate Location/Type
03:34PM 34.5147 -86.6797 108° East 239 275 5,500  Level Memphis Center
03:35PM 34.4911 -86.5900 108° East 253 291 8,100 2,400 Climbing Memphis Center
03:36PM 34.4717 -86.4975 104° East 259 298 10,300 1,620 Climbing Memphis Center
03:37PM 34.4653 -86.3642 93° East 290 334 12,000 1,200 Climbing Atlanta Center
03:38PM 34.4839 -86.2514 79° East 311 358 13,200 1,200 Climbing Atlanta Center
03:39PM 34.4569 -86.1347 106° East 336 387 14,400 1,200 Climbing Atlanta Center
03:40PM 34.4211 -86.0181 110° East 356 410 15,600 1,200 Climbing Atlanta Center
03:41PM 34.3875 -85.8964 108° East 364 419 16,800 1,140 Climbing Atlanta Center
03:42PM 34.3478 -85.7622 110° East 374 430 17,900 1,020 Climbing Atlanta Center
03:43PM 34.3142 -85.6333 107° East 394 453 18,900 540 Climbing Atlanta Center
03:44PM 34.2781 -85.5144 110° East 402 463 19,000  Climbing Atlanta Center
03:45PM 34.2400 -85.3781 109° East 425 489 19,000 -120 Level Atlanta Center
03:46PM 34.1975 -85.2342 110° East 439 505 18,800 -1,500 Descending Atlanta Center
03:47PM 34.1467 -85.1006 115° Southeast 444 511 16,100 -2,400 Descending Atlanta Center
03:48PM 34.0703 -84.9992 132° Southeast 424 488 14,000 -1,740 Descending Atlanta Center
03:49PM 33.9978 -84.9108 135° Southeast 386 444 12,700 -1,020 Descending Atlanta Center
03:50PM 33.9275 -84.8200 133° Southeast 368 423 12,000 -360 Descending Atlanta Center
03:51PM 33.8550 -84.7317 135° Southeast 368 423 12,000  Level Atlanta Center
03:52PM 33.7803 -84.6461 136° Southeast 368 423 12,000 -60 Level Atlanta Center
03:53PM 33.7347 -84.5608 123° Southeast 296 341 11,900 -660 Descending Atlanta Center
03:54PM 33.7308 -84.4733 93° East 268 308 10,700 -1,320 Descending Atlanta Center
03:55PM 33.7311 -84.3886 90° East 256 295 9,300 -1,680 Descending Atlanta Center
03:57PM 33.7333 -84.2667 89° East 237 273 6,900 -1,860 Descending Atlanta TRACON
03:58PM 33.7333 -84.2000 90° East 226 260 5,100 -1,380 Descending Atlanta TRACON
03:59PM 33.7000 -84.1500 129° Southeast 236 272 4,100 -540 Descending Atlanta TRACON
04:00PM 33.6500 -84.2000 220° Southwest 213 245 4,100 -420 Level Atlanta TRACON
04:01PM 33.6500 -84.2667 270° West 190 219 3,400 -900 Descending Atlanta TRACON
04:02PM 33.6500 -84.3167 270° West 187 215 2,400 -900 Descending Atlanta TRACON
04:03PM 33.6500 -84.3833 270° West 151 174 1,600 -840 Descending Atlanta TRACON
04:05PM 33.6333 -84.4167 North  Level FlightAware Approximate
04:12PM 33.6367 -84.4279 North  Level Estimated